Startpagina
METAR-TAF:

METAR-TAF

Vliegvelden :

Nouakchott, Mauretanië

Internationale luchthaven van Nouakchott

breedte: 18-18-36N, lengte: 015-58-11W, hoogte: 3 m

Actueel weer

Dit bericht is 37 minuten geleden gemaakt, om 23:30 UTC
Wind 4 kt uit het noordwesten
Temperatuur 26°C
Vochtigheid 89%
Druk 1015 hPa
Zicht 10 km of meer
geen wolken onder 1500 m en geen cumulonimbus

METAR: GQNO 272330Z 32004KT CAVOK 26/24 Q1015 NOSIG

Tijdstip: 00:07 (00:07 UTC)

Verwachting

Dit bericht is 1 uur en het 7 minuten geleden gemaakt, om 23:00 UTC
Verwachting geldig van 28 om 00 UTC tot 29 om 06 UTC
Wind 8 kt uit het westen
Zicht: 8000 m
Wijzigt naar
van 28 om 05 UTC tot 28 om 07 UTC
Wind 12 kt uit het noordnoordwesten

TAF: GQNO 272300Z 2800/2906 27008KT 8000 NSC BECMG 2805/2807 33012KT

Waarnemingen en weersverwachtingen van meer dan 4000 vliegvelden (METAR en TAF).

De beschikbare stations zijn de gele en rode punten op de kaart.

Ga met uw muis naar het station om de naam te zien.

Klik dan om waarnemingen en weersverwachtingen te zien.

kaart wijzigen: klik op de groene knoppen met een zwart kruis om in te zoomen, op de groene knop met een streepje om uit te zoomen of op de groene pijlen voor aangrenzende kaarten.


METAR-TAF: